East Longmeadow, MA (01028)

9:05 AM EDT on September 03, 2015 (GMT -0400)
East Longmeadow | | Change Station
CLOSE
Current Station
Personal Weather Station
Location: East Longmeadow, MA
Elevation: 255 ft
Nearby Weather Stations

Elev 255 ft 42.07 °N, 72.47 °W | Updated 5 minutes ago

Partly Cloudy
Partly Cloudy
69.8 °F
Feels Like 69.8 °F
N
0.0
Wind Variable Wind from SSE
Gusts 0.0 mph

Today
High -- | Low -- °F
--% Chance of Precip.
Yesterday
High -- | Low -- °F
Precip. -- in
6:17 AM 7:20 PM
Waning Gibbous, 70% visible
Pressure 29.90 in
Visibility 9.0 miles
Clouds Clear
Dew Point 63 °F
Humidity 78%
Rainfall 0.00 in
Snow Depth Not available.
UV 1 out of 12
Pollen 8.30 out of 12
Air Quality Not available.
Flu Activity Not available.
METAR KCEF 031158Z AUTO 02001KT 9SM CLR 18/18 A2988 RMK AO2 SLP123 T01800177 10180 20152 52010
Pressure 29.90 in
Visibility 9.0 miles
Clouds Clear
Dew Point 63 °F
Humidity 78%
Rainfall 0.00 in
Snow Depth Not available.
UV 1 out of 12
Pollen 8.30 out of 12
Air Quality Not available.
Flu Activity Not available.
METAR KCEF 031158Z AUTO 02001KT 9SM CLR 18/18 A2988 RMK AO2 SLP123 T01800177 10180 20152 52010

10-Day Weather Forecast

×

Almanac

Astronomy

Sep. 03, 2015 Rise Set
Actual Time
Civil Twilight
Nautical Twilight
Astronomical Twilight
Moon
Length of Visible Light
Length of Day
Tomorrow will be .
, % of the Moon is Illuminated

Today's Extremes

State Highs State Lows

Community

WunderPhotos

Upload Photos

1,851,952 photos uploaded!

WunderBlogs® & News

Nearby

Air Quality

  Air Quality AQ Index Pollutant
Not available.

Snow Depth

Station Depth Elevation

Earthquake Activity

City Distance Mag. Time & Date
Minimum magnitude displayed is 2.5.

Coastal Water Temperatures

Place Temperature

Stations

Nearby Weather Stations

Station Location Temp. Windchill Dew Point Humidity Wind Precip. Elev Updated Type